createdAt,value
2018-09-02T00:01:21.599Z,8.53
2018-09-02T00:03:52.589Z,5.57
2018-09-02T00:06:23.611Z,4.27
2018-09-02T00:08:54.491Z,4.30
2018-09-02T00:11:25.739Z,3.67
2018-09-02T00:13:56.771Z,5.30
2018-09-02T00:16:27.911Z,5.00
2018-09-02T00:18:58.835Z,5.27
2018-09-02T00:21:29.787Z,7.70
2018-09-02T00:24:00.731Z,7.87
2018-09-02T00:26:32.112Z,8.70
2018-09-02T00:29:03.011Z,8.00
2018-09-02T00:31:34.031Z,7.97
2018-09-02T00:34:05.013Z,9.00
2018-09-02T00:36:36.083Z,9.23
2018-09-02T00:39:09.912Z,9.17
2018-09-02T00:41:41.243Z,10.07
2018-09-02T00:44:12.211Z,9.33
2018-09-02T00:46:43.326Z,9.40
2018-09-02T00:49:14.232Z,8.87
2018-09-02T00:51:45.227Z,9.27
2018-09-02T00:54:16.096Z,8.57
2018-09-02T00:56:47.398Z,9.57
2018-09-02T00:59:18.371Z,10.33
2018-09-02T01:01:49.483Z,9.57
2018-09-02T01:04:20.417Z,9.93
2018-09-02T01:06:51.415Z,9.80
2018-09-02T01:09:22.246Z,9.93
2018-09-02T01:11:53.351Z,9.00
2018-09-02T01:14:24.351Z,9.77
2018-09-02T01:16:55.302Z,9.57
2018-09-02T01:19:26.203Z,10.23
2018-09-02T01:21:57.243Z,8.80
2018-09-02T01:24:28.443Z,9.10
2018-09-02T01:26:59.386Z,9.10
2018-09-02T01:29:30.304Z,9.10
2018-09-02T01:32:01.311Z,8.70
2018-09-02T01:34:32.213Z,9.20
2018-09-02T01:37:03.140Z,9.67
2018-09-02T01:39:34.100Z,8.77
2018-09-02T01:42:05.123Z,7.60
2018-09-02T01:44:36.231Z,8.37
2018-09-02T01:47:07.354Z,8.37
2018-09-02T01:49:38.311Z,9.63
2018-09-02T01:52:09.243Z,8.77
2018-09-02T01:54:40.080Z,9.67
2018-09-02T01:57:11.123Z,8.40
2018-09-02T01:59:42.055Z,9.00
2018-09-02T02:02:13.084Z,9.47
2018-09-02T02:04:44.094Z,8.67
2018-09-02T02:07:15.304Z,9.33
2018-09-02T02:09:46.199Z,9.00
2018-09-02T02:12:17.152Z,9.37
2018-09-02T02:14:48.053Z,9.10
2018-09-02T02:17:19.152Z,10.87
2018-09-02T02:19:50.152Z,9.90
2018-09-02T02:22:21.213Z,10.07
2018-09-02T02:24:52.112Z,9.63
2018-09-02T02:27:23.122Z,9.93
2018-09-02T02:29:54.995Z,10.70
2018-09-02T02:32:26.084Z,9.43
2018-09-02T02:34:57.071Z,8.70
2018-09-02T02:37:27.990Z,9.00
2018-09-02T02:39:59.104Z,8.80
2018-09-02T02:42:30.084Z,8.77
2018-09-02T02:45:01.023Z,9.70
2018-09-02T02:47:31.920Z,9.57
2018-09-02T02:50:02.932Z,9.20
2018-09-02T02:52:38.899Z,9.97
2018-09-02T02:55:10.596Z,9.40
2018-09-02T02:57:41.511Z,10.13
2018-09-02T03:00:12.471Z,9.17
2018-09-02T03:02:43.398Z,11.37
2018-09-02T03:05:14.310Z,11.00
2018-09-02T03:07:45.243Z,11.30
2018-09-02T03:10:16.251Z,10.80
2018-09-02T03:12:47.303Z,11.50
2018-09-02T03:15:19.186Z,10.23
2018-09-02T03:17:50.254Z,11.97
2018-09-02T03:20:21.195Z,12.50
2018-09-02T03:22:52.215Z,12.37
2018-09-02T03:25:23.135Z,11.07
2018-09-02T03:27:54.172Z,11.37
2018-09-02T03:30:25.104Z,12.00
2018-09-02T03:32:56.183Z,13.00
2018-09-02T03:35:27.165Z,11.90
2018-09-02T03:37:58.151Z,12.00
2018-09-02T03:40:29.151Z,11.77
2018-09-02T03:43:00.151Z,12.27
2018-09-02T03:45:31.051Z,13.07
2018-09-02T03:48:02.130Z,10.77
2018-09-02T03:50:33.055Z,11.87
2018-09-02T03:53:04.411Z,12.40
2018-09-02T03:55:35.613Z,12.33
2018-09-02T03:58:06.638Z,13.97
2018-09-02T04:00:37.572Z,12.67
2018-09-02T04:03:08.523Z,12.70
2018-09-02T04:05:39.741Z,12.87
2018-09-02T04:08:10.728Z,14.00
2018-09-02T04:10:41.712Z,13.77
2018-09-02T04:13:12.663Z,13.57
2018-09-02T04:15:43.619Z,14.63
2018-09-02T04:18:14.630Z,11.90
2018-09-02T04:20:46.615Z,12.07
2018-09-02T04:23:17.555Z,11.40
2018-09-02T04:25:48.511Z,11.97
2018-09-02T04:28:19.451Z,10.40
2018-09-02T04:30:50.437Z,11.77
2018-09-02T04:33:21.476Z,11.07
2018-09-02T04:35:52.709Z,12.60
2018-09-02T04:38:23.671Z,12.00
2018-09-02T04:40:54.687Z,12.17
2018-09-02T04:43:25.712Z,13.20
2018-09-02T04:45:56.775Z,11.97
2018-09-02T04:48:27.881Z,13.53
2018-09-02T04:50:58.914Z,13.70
2018-09-02T04:53:29.934Z,14.37
2018-09-02T04:56:00.816Z,13.53
2018-09-02T04:58:31.831Z,12.47
2018-09-02T05:01:02.895Z,13.07
2018-09-02T05:03:34.299Z,12.00
2018-09-02T05:06:05.459Z,12.37
2018-09-02T05:08:36.483Z,14.97
2018-09-02T05:11:07.700Z,13.17
2018-09-02T05:13:38.623Z,12.90
2018-09-02T05:16:09.633Z,11.80
2018-09-02T05:18:40.539Z,12.03
2018-09-02T05:21:11.759Z,11.70
2018-09-02T05:23:42.891Z,12.37
2018-09-02T05:26:13.816Z,11.43
2018-09-02T05:28:45.106Z,13.17
2018-09-02T05:31:16.040Z,13.57
2018-09-02T05:33:47.608Z,14.00
2018-09-02T05:36:18.489Z,13.60
2018-09-02T05:38:49.440Z,13.77
2018-09-02T05:41:20.375Z,13.63
2018-09-02T05:43:51.405Z,13.57
2018-09-02T05:46:22.372Z,14.17
2018-09-02T05:48:53.351Z,13.43
2018-09-02T05:51:24.284Z,14.60
2018-09-02T05:53:55.277Z,13.67
2018-09-02T05:56:26.366Z,14.73
2018-09-02T05:58:57.324Z,14.80
2018-09-02T06:01:28.311Z,16.23
2018-09-02T06:03:59.271Z,14.67
2018-09-02T06:06:30.354Z,14.00
2018-09-02T06:09:01.396Z,13.57
2018-09-02T06:11:32.988Z,14.50
2018-09-02T06:14:04.512Z,14.17
2018-09-02T06:16:35.491Z,13.47
2018-09-02T06:19:06.564Z,11.70
2018-09-02T06:21:37.684Z,10.97
2018-09-02T06:24:08.631Z,10.80
2018-09-02T06:26:39.631Z,7.67
2018-09-02T06:29:10.740Z,7.03
2018-09-02T06:31:41.832Z,7.67
2018-09-02T06:34:12.999Z,7.70
2018-09-02T06:36:43.975Z,8.87
2018-09-02T06:39:15.023Z,9.07
2018-09-02T06:41:46.008Z,8.50
2018-09-02T06:44:17.085Z,9.53
2018-09-02T06:46:47.984Z,9.77
2018-09-02T06:49:18.899Z,9.23
2018-09-02T06:51:49.806Z,9.27
2018-09-02T06:54:21.424Z,9.00
2018-09-02T06:56:52.351Z,8.50
2018-09-02T06:59:23.352Z,8.67
2018-09-02T07:01:54.355Z,7.13
2018-09-02T07:04:25.506Z,5.53
2018-09-02T07:06:56.532Z,5.30
2018-09-02T07:09:27.531Z,5.00
2018-09-02T07:11:58.522Z,4.33
2018-09-02T07:14:29.575Z,5.80
2018-09-02T07:17:00.432Z,5.33
2018-09-02T07:19:31.492Z,5.30
2018-09-02T07:22:02.516Z,5.27
2018-09-02T07:24:33.784Z,6.20
2018-09-02T07:27:04.887Z,5.73
2018-09-02T07:29:35.877Z,6.87
2018-09-02T07:32:06.995Z,7.20
2018-09-02T07:34:37.976Z,6.47
2018-09-02T07:37:08.854Z,7.30
2018-09-02T07:39:39.824Z,6.90
2018-09-02T07:42:10.751Z,6.10
2018-09-02T07:44:41.804Z,6.40
2018-09-02T07:47:12.726Z,6.63
2018-09-02T07:49:43.717Z,8.07
2018-09-02T07:52:14.652Z,8.07
2018-09-02T07:54:45.610Z,8.10
2018-09-02T07:57:16.564Z,7.40
2018-09-02T07:59:47.653Z,7.23
2018-09-02T08:02:18.627Z,7.00
2018-09-02T08:04:49.651Z,7.30
2018-09-02T08:07:20.631Z,4.80
2018-09-02T08:09:51.564Z,4.20
2018-09-02T08:12:22.616Z,5.33
2018-09-02T08:14:53.483Z,5.27
2018-09-02T08:17:24.452Z,4.80
2018-09-02T08:19:56.493Z,5.00
2018-09-02T08:22:28.333Z,4.43
2018-09-02T08:24:59.323Z,5.37
2018-09-02T08:27:30.232Z,4.80
2018-09-02T08:30:01.295Z,5.30
2018-09-02T08:32:32.323Z,4.10
2018-09-02T08:35:03.311Z,2.77
2018-09-02T08:37:34.352Z,2.77
2018-09-02T08:40:05.634Z,2.20
2018-09-02T08:42:36.614Z,2.57
2018-09-02T08:45:09.696Z,3.00
2018-09-02T08:47:40.661Z,2.40
2018-09-02T08:50:11.640Z,1.80
2018-09-02T08:52:42.783Z,2.33
2018-09-02T08:55:13.820Z,1.90
2018-09-02T08:57:45.211Z,1.77
2018-09-02T09:00:17.980Z,1.80
2018-09-02T09:02:50.483Z,1.70
2018-09-02T09:05:21.552Z,1.67
2018-09-02T09:07:52.780Z,1.73
2018-09-02T09:10:23.686Z,1.70
2018-09-02T09:12:54.796Z,1.50
2018-09-02T09:15:26.066Z,1.90
2018-09-02T09:17:57.056Z,3.50
2018-09-02T09:20:28.092Z,1.93
2018-09-02T09:22:59.040Z,2.13
2018-09-02T09:25:31.048Z,1.60
2018-09-02T09:28:01.979Z,2.10
2018-09-02T09:30:33.880Z,2.10
2018-09-02T09:33:04.792Z,2.43
2018-09-02T09:35:35.766Z,2.53
2018-09-02T09:38:07.878Z,2.13
2018-09-02T09:40:39.070Z,1.50
2018-09-02T09:43:10.075Z,1.33
2018-09-02T09:45:41.254Z,1.90
2018-09-02T09:48:12.272Z,1.50
2018-09-02T09:50:43.546Z,1.50
2018-09-02T09:53:14.531Z,1.10
2018-09-02T09:55:45.551Z,1.03
2018-09-02T09:58:16.511Z,1.07
2018-09-02T10:00:51.168Z,1.40
2018-09-02T10:03:23.340Z,1.20
2018-09-02T10:05:54.245Z,1.10
2018-09-02T10:08:25.247Z,1.33
2018-09-02T10:10:56.907Z,1.47
2018-09-02T10:13:27.860Z,0.77
2018-09-02T10:15:58.879Z,0.73
2018-09-02T10:18:29.872Z,0.67
2018-09-02T10:21:00.904Z,1.73
2018-09-02T10:23:31.931Z,1.10
2018-09-02T10:26:02.915Z,0.67
2018-09-02T10:28:33.954Z,0.80
2018-09-02T10:31:05.523Z,1.00
2018-09-02T10:33:36.619Z,0.63
2018-09-02T10:36:09.119Z,0.73
2018-09-02T10:38:40.726Z,0.67
2018-09-02T10:41:11.989Z,0.50
2018-09-02T10:43:43.468Z,0.80
2018-09-02T10:46:14.403Z,0.80
2018-09-02T10:48:45.496Z,0.80
2018-09-02T10:51:17.232Z,0.70
2018-09-02T10:53:48.209Z,1.00
2018-09-02T10:56:19.695Z,1.03
2018-09-02T10:58:50.928Z,1.20
2018-09-02T11:01:22.064Z,1.30
2018-09-02T11:03:53.160Z,1.10
2018-09-02T11:06:24.316Z,1.20
2018-09-02T11:08:55.259Z,1.20
2018-09-02T11:11:26.415Z,1.20
2018-09-02T11:13:57.491Z,1.33
2018-09-02T11:16:28.504Z,1.03
2018-09-02T11:18:59.569Z,0.73
2018-09-02T11:21:30.615Z,0.70
2018-09-02T11:24:01.546Z,0.73
2018-09-02T11:26:32.772Z,1.07
2018-09-02T11:29:04.033Z,1.20
2018-09-02T11:31:35.107Z,1.10
2018-09-02T11:34:06.241Z,1.03
2018-09-02T11:36:37.874Z,1.17
2018-09-02T11:39:11.046Z,0.90
2018-09-02T11:41:42.026Z,1.80
2018-09-02T11:44:13.003Z,0.77
2018-09-02T11:46:44.119Z,0.73
2018-09-02T11:49:15.075Z,0.80
2018-09-02T11:51:46.146Z,1.07
2018-09-02T11:54:17.132Z,1.00
2018-09-02T11:56:48.412Z,1.47
2018-09-02T11:59:19.360Z,0.83
2018-09-02T12:01:50.543Z,1.23
2018-09-02T12:04:21.637Z,1.37
2018-09-02T12:06:52.772Z,0.90
2018-09-02T12:09:23.734Z,0.70
2018-09-02T12:11:54.788Z,0.93
2018-09-02T12:14:25.812Z,0.80
2018-09-02T12:16:56.927Z,0.97
2018-09-02T12:19:28.852Z,0.60
2018-09-02T12:21:59.891Z,0.60
2018-09-02T12:24:31.404Z,0.73
2018-09-02T12:27:02.872Z,0.90
2018-09-02T12:29:33.853Z,0.80
2018-09-02T12:32:05.815Z,0.90
2018-09-02T12:34:36.672Z,0.70
2018-09-02T12:37:07.672Z,0.80
2018-09-02T12:39:38.608Z,1.40
2018-09-02T12:42:10.347Z,1.80
2018-09-02T12:44:41.584Z,1.20
2018-09-02T12:47:12.847Z,0.80
2018-09-02T12:49:43.944Z,0.70
2018-09-02T12:52:17.045Z,0.60
2018-09-02T12:54:47.990Z,0.60
2018-09-02T12:57:18.943Z,2.40
2018-09-02T12:59:49.973Z,0.83
2018-09-02T13:02:20.933Z,0.97
2018-09-02T13:04:52.052Z,0.80
2018-09-02T13:07:22.956Z,0.70
2018-09-02T13:09:53.972Z,0.63
2018-09-02T13:12:24.926Z,0.87
2018-09-02T13:14:55.937Z,0.50
2018-09-02T13:17:26.952Z,1.37
2018-09-02T13:19:57.949Z,1.00
2018-09-02T13:22:28.985Z,0.90
2018-09-02T13:24:59.927Z,0.80
2018-09-02T13:27:31.033Z,1.63
2018-09-02T13:30:02.035Z,0.80
2018-09-02T13:32:33.078Z,0.90
2018-09-02T13:35:04.129Z,0.80
2018-09-02T13:37:35.468Z,2.43
2018-09-02T13:40:06.839Z,0.70
2018-09-02T13:42:38.232Z,2.20
2018-09-02T13:45:09.864Z,0.90
2018-09-02T13:47:40.904Z,1.27
2018-09-02T13:50:11.867Z,0.80
2018-09-02T13:52:42.871Z,0.93
2018-09-02T13:55:13.853Z,0.80
2018-09-02T13:57:44.903Z,0.90
2018-09-02T14:00:15.822Z,0.90
2018-09-02T14:02:46.956Z,1.73
2018-09-02T14:05:17.835Z,0.90
2018-09-02T14:07:48.862Z,2.27
2018-09-02T14:10:19.721Z,1.00
2018-09-02T14:12:51.297Z,1.20
2018-09-02T14:15:22.341Z,0.80
2018-09-02T14:17:53.386Z,0.80
2018-09-02T14:20:24.412Z,1.33
2018-09-02T14:22:55.599Z,0.80
2018-09-02T14:25:26.552Z,1.03
2018-09-02T14:27:58.423Z,0.97
2018-09-02T14:30:29.392Z,0.80
2018-09-02T14:33:00.475Z,1.37
2018-09-02T14:35:31.402Z,1.10
2018-09-02T14:38:02.456Z,1.07
2018-09-02T14:40:33.383Z,1.77
2018-09-02T14:43:04.456Z,0.70
2018-09-02T14:45:35.426Z,0.87
2018-09-02T14:48:06.436Z,2.97
2018-09-02T14:50:37.379Z,1.23
2018-09-02T14:53:08.565Z,1.10
2018-09-02T14:55:39.444Z,2.50
2018-09-02T14:58:10.539Z,1.17
2018-09-02T15:00:41.699Z,1.13
2018-09-02T15:03:12.832Z,1.17
2018-09-02T15:05:43.749Z,0.90
2018-09-02T15:08:14.836Z,1.03
2018-09-02T15:10:45.939Z,1.33
2018-09-02T15:13:16.969Z,1.37
2018-09-02T15:15:48.014Z,1.33
2018-09-02T15:18:18.991Z,1.17
2018-09-02T15:20:50.916Z,1.20
2018-09-02T15:23:22.116Z,1.40
2018-09-02T15:25:53.104Z,1.43
2018-09-02T15:28:25.048Z,2.60
2018-09-02T15:30:55.956Z,2.23
2018-09-02T15:33:26.962Z,2.43
2018-09-02T15:35:57.982Z,1.80
2018-09-02T15:38:28.946Z,1.20
2018-09-02T15:41:00.571Z,1.23
2018-09-02T15:43:31.512Z,1.60
2018-09-02T15:46:02.412Z,1.73
2018-09-02T15:48:33.410Z,1.40
2018-09-02T15:51:04.251Z,1.30
2018-09-02T15:53:35.497Z,1.13
2018-09-02T15:56:06.671Z,1.57
2018-09-02T15:58:37.704Z,1.47
2018-09-02T16:01:08.704Z,2.40
2018-09-02T16:03:39.758Z,1.63
2018-09-02T16:06:10.946Z,2.00
2018-09-02T16:08:41.929Z,1.63
2018-09-02T16:11:12.851Z,1.33
2018-09-02T16:13:43.854Z,2.40
2018-09-02T16:16:14.859Z,1.90
2018-09-02T16:18:45.911Z,2.00
2018-09-02T16:21:17.024Z,2.23
2018-09-02T16:23:48.423Z,1.93
2018-09-02T16:26:19.452Z,1.60
2018-09-02T16:28:51.323Z,1.70
2018-09-02T16:31:22.263Z,1.73
2018-09-02T16:33:53.571Z,2.83
2018-09-02T16:36:24.479Z,1.77
2018-09-02T16:38:55.428Z,1.90
2018-09-02T16:41:26.408Z,3.47
2018-09-02T16:43:57.436Z,1.80
2018-09-02T16:46:28.411Z,2.23
2018-09-02T16:48:59.538Z,1.30
2018-09-02T16:51:30.513Z,1.40
2018-09-02T16:54:01.524Z,1.77
2018-09-02T16:56:32.483Z,2.00
2018-09-02T16:59:03.548Z,1.57
2018-09-02T17:01:34.612Z,1.40
2018-09-02T17:04:09.102Z,1.80
2018-09-02T17:06:40.255Z,1.50
2018-09-02T17:09:12.835Z,1.60
2018-09-02T17:11:43.797Z,1.60
2018-09-02T17:14:14.812Z,1.50
2018-09-02T17:16:45.756Z,1.40
2018-09-02T17:19:21.012Z,1.57
2018-09-02T17:21:52.155Z,1.37
2018-09-02T17:24:23.335Z,1.40
2018-09-02T17:26:54.334Z,1.50
2018-09-02T17:29:25.442Z,1.30
2018-09-02T17:31:57.812Z,1.87
2018-09-02T17:34:28.866Z,1.50
2018-09-02T17:36:59.864Z,2.30
2018-09-02T17:39:31.408Z,1.40
2018-09-02T17:42:02.717Z,1.83
2018-09-02T17:44:33.807Z,1.40
2018-09-02T17:47:05.016Z,2.00
2018-09-02T17:49:36.335Z,1.40
2018-09-02T17:52:07.612Z,1.70
2018-09-02T17:54:38.824Z,2.73
2018-09-02T17:57:09.827Z,1.47
2018-09-02T17:59:40.829Z,2.43
2018-09-02T18:02:13.533Z,2.10
2018-09-02T18:04:45.775Z,1.60
2018-09-02T18:07:17.469Z,2.40
2018-09-02T18:09:48.674Z,1.53
2018-09-02T18:12:20.436Z,1.73
2018-09-02T18:14:52.787Z,2.23
2018-09-02T18:17:24.073Z,2.10
2018-09-02T18:19:56.072Z,1.83
2018-09-02T18:22:27.235Z,2.07
2018-09-02T18:24:58.725Z,1.60
2018-09-02T18:27:34.155Z,3.20
2018-09-02T18:30:07.756Z,1.93
2018-09-02T18:32:39.392Z,1.67
2018-09-02T18:35:11.192Z,1.50
2018-09-02T18:37:42.241Z,1.50
2018-09-02T18:40:15.705Z,2.90
2018-09-02T18:42:47.951Z,2.17
2018-09-02T18:45:20.008Z,2.43
2018-09-02T18:47:51.092Z,2.57
2018-09-02T18:50:23.342Z,2.40
2018-09-02T18:52:54.314Z,1.63
2018-09-02T18:55:27.885Z,3.20
2018-09-02T18:58:00.167Z,1.77
2018-09-02T19:00:31.947Z,3.07
2018-09-02T19:03:06.449Z,2.03
2018-09-02T19:05:38.714Z,2.00
2018-09-02T19:08:11.632Z,1.70
2018-09-02T19:10:43.262Z,4.13
2018-09-02T19:13:15.534Z,2.40
2018-09-02T19:15:46.598Z,1.50
2018-09-02T19:18:18.664Z,1.77
2018-09-02T19:20:49.644Z,2.23
2018-09-02T19:23:20.595Z,1.80
2018-09-02T19:25:53.792Z,2.83
2018-09-02T19:28:24.853Z,2.00
2018-09-02T19:30:55.899Z,2.63
2018-09-02T19:33:27.211Z,1.77
2018-09-02T19:35:58.274Z,2.20
2018-09-02T19:38:29.225Z,2.23
2018-09-02T19:41:00.501Z,2.00
2018-09-02T19:43:31.785Z,2.77
2018-09-02T19:46:03.784Z,2.27
2018-09-02T19:48:35.122Z,3.10
2018-09-02T19:51:06.665Z,1.90
2018-09-02T19:53:38.513Z,5.00
2018-09-02T19:56:10.327Z,2.20
2018-09-02T19:58:41.437Z,2.00
2018-09-02T20:01:14.573Z,3.93
2018-09-02T20:03:45.698Z,1.70
2018-09-02T20:06:16.726Z,2.00
2018-09-02T20:08:47.939Z,2.17
2018-09-02T20:11:19.016Z,2.60
2018-09-02T20:13:50.234Z,2.90
2018-09-02T20:16:21.470Z,2.07
2018-09-02T20:18:52.804Z,2.00
2018-09-02T20:21:24.071Z,2.13
2018-09-02T20:23:55.609Z,2.37
2018-09-02T20:26:26.811Z,2.00
2018-09-02T20:28:57.880Z,1.90
2018-09-02T20:31:29.692Z,2.23
2018-09-02T20:34:01.253Z,1.77
2018-09-02T20:36:32.529Z,2.40
2018-09-02T20:39:05.066Z,2.50
2018-09-02T20:41:36.323Z,3.20
2018-09-02T20:44:08.147Z,2.23
2018-09-02T20:46:39.704Z,2.07
2018-09-02T20:49:10.632Z,2.10
2018-09-02T20:51:42.248Z,2.47
2018-09-02T20:54:13.234Z,2.47
2018-09-02T20:56:45.544Z,3.50
2018-09-02T20:59:16.666Z,2.30
2018-09-02T21:01:47.630Z,2.33
2018-09-02T21:04:19.512Z,2.33
2018-09-02T21:06:51.166Z,2.80
2018-09-02T21:09:22.168Z,2.53
2018-09-02T21:11:53.692Z,3.40
2018-09-02T21:14:24.631Z,3.30
2018-09-02T21:16:55.606Z,1.90
2018-09-02T21:19:26.591Z,1.60
2018-09-02T21:21:57.680Z,2.43
2018-09-02T21:24:28.833Z,1.87
2018-09-02T21:27:00.496Z,2.27
2018-09-02T21:29:31.475Z,3.07
2018-09-02T21:32:02.443Z,2.27
2018-09-02T21:34:33.506Z,1.70
2018-09-02T21:37:04.589Z,2.27
2018-09-02T21:39:35.631Z,3.43
2018-09-02T21:42:06.731Z,2.13
2018-09-02T21:44:37.692Z,2.20
2018-09-02T21:47:08.675Z,2.87
2018-09-02T21:49:39.704Z,4.43
2018-09-02T21:52:10.788Z,5.77
2018-09-02T21:54:41.699Z,2.30
2018-09-02T21:57:12.641Z,1.83
2018-09-02T21:59:43.618Z,3.90
2018-09-02T22:02:14.692Z,3.37
2018-09-02T22:04:45.651Z,4.90
2018-09-02T22:07:16.695Z,2.43
2018-09-02T22:09:47.612Z,2.73
2018-09-02T22:12:18.632Z,4.00
2018-09-02T22:14:50.583Z,3.00
2018-09-02T22:17:21.592Z,2.73
2018-09-02T22:19:52.452Z,2.30
2018-09-02T22:22:23.444Z,2.40
2018-09-02T22:24:54.372Z,3.00
2018-09-02T22:27:26.305Z,3.20
2018-09-02T22:29:57.338Z,2.80
2018-09-02T22:32:28.351Z,2.43
2018-09-02T22:34:59.211Z,2.60
2018-09-02T22:37:30.296Z,2.80
2018-09-02T22:40:01.254Z,2.40
2018-09-02T22:42:32.252Z,2.40
2018-09-02T22:45:03.169Z,2.47
2018-09-02T22:47:34.144Z,3.27
2018-09-02T22:50:05.188Z,3.40
2018-09-02T22:52:36.212Z,3.40
2018-09-02T22:55:07.131Z,2.80
2018-09-02T22:57:38.232Z,2.40
2018-09-02T23:00:09.227Z,3.70
2018-09-02T23:02:40.191Z,3.87
2018-09-02T23:05:11.424Z,3.37
2018-09-02T23:07:42.431Z,3.23
2018-09-02T23:10:14.363Z,3.33
2018-09-02T23:12:45.516Z,3.67
2018-09-02T23:15:16.472Z,3.10
2018-09-02T23:17:47.393Z,3.07
2018-09-02T23:20:18.389Z,3.03
2018-09-02T23:22:49.575Z,3.90
2018-09-02T23:25:20.571Z,3.00
2018-09-02T23:27:51.656Z,2.80
2018-09-02T23:30:22.592Z,2.77
2018-09-02T23:32:53.651Z,2.73
2018-09-02T23:35:24.576Z,3.10
2018-09-02T23:37:55.511Z,2.97
2018-09-02T23:40:26.447Z,4.10
2018-09-02T23:42:57.411Z,2.67
2018-09-02T23:45:28.324Z,3.90
2018-09-02T23:47:59.343Z,2.87
2018-09-02T23:50:30.492Z,2.67
2018-09-02T23:53:01.431Z,2.97
2018-09-02T23:55:32.416Z,2.53
2018-09-02T23:58:03.592Z,4.47
